sensor_id;sensor_type;location;lat;lon;timestamp;P1;durP1;ratioP1;P2;durP2;ratioP2
69532;SDS011;56729;52.036;5.332;2022-09-16T00:00:03;5.82;;;1.55;;
69532;SDS011;56729;52.036;5.332;2022-09-16T00:01:12;8.83;;;1.23;;
69532;SDS011;56729;52.036;5.332;2022-09-16T00:02:15;10.32;;;1.90;;
69532;SDS011;56729;52.036;5.332;2022-09-16T00:03:17;8.07;;;1.50;;
69532;SDS011;56729;52.036;5.332;2022-09-16T00:04:20;8.98;;;1.50;;
69532;SDS011;56729;52.036;5.332;2022-09-16T00:05:22;5.28;;;1.70;;
69532;SDS011;56729;52.036;5.332;2022-09-16T00:06:25;5.78;;;1.48;;
69532;SDS011;56729;52.036;5.332;2022-09-16T00:07:29;6.00;;;1.00;;
69532;SDS011;56729;52.036;5.332;2022-09-16T00:08:31;7.65;;;1.73;;
69532;SDS011;56729;52.036;5.332;2022-09-16T00:09:35;9.93;;;1.98;;
69532;SDS011;56729;52.036;5.332;2022-09-16T00:10:38;6.45;;;2.00;;
69532;SDS011;56729;52.036;5.332;2022-09-16T00:11:41;5.87;;;1.30;;
69532;SDS011;56729;52.036;5.332;2022-09-16T00:12:42;9.32;;;1.90;;
69532;SDS011;56729;52.036;5.332;2022-09-16T00:13:45;5.60;;;1.67;;
69532;SDS011;56729;52.036;5.332;2022-09-16T00:14:47;9.68;;;1.75;;
69532;SDS011;56729;52.036;5.332;2022-09-16T00:15:49;7.68;;;1.35;;
69532;SDS011;56729;52.036;5.332;2022-09-16T00:16:51;9.45;;;1.38;;
69532;SDS011;56729;52.036;5.332;2022-09-16T00:17:54;7.63;;;1.42;;
69532;SDS011;56729;52.036;5.332;2022-09-16T00:18:56;8.35;;;1.77;;
69532;SDS011;56729;52.036;5.332;2022-09-16T00:20:00;5.53;;;1.67;;
69532;SDS011;56729;52.036;5.332;2022-09-16T00:21:05;9.20;;;1.77;;
69532;SDS011;56729;52.036;5.332;2022-09-16T00:22:08;5.40;;;1.60;;
69532;SDS011;56729;52.036;5.332;2022-09-16T00:23:10;7.47;;;1.33;;
69532;SDS011;56729;52.036;5.332;2022-09-16T00:24:12;7.72;;;1.15;;
69532;SDS011;56729;52.036;5.332;2022-09-16T00:25:15;9.68;;;1.88;;
69532;SDS011;56729;52.036;5.332;2022-09-16T00:26:17;5.10;;;1.23;;
69532;SDS011;56729;52.036;5.332;2022-09-16T00:27:19;6.28;;;1.30;;
69532;SDS011;56729;52.036;5.332;2022-09-16T00:28:21;5.55;;;1.70;;
69532;SDS011;56729;52.036;5.332;2022-09-16T00:29:24;7.85;;;1.75;;
69532;SDS011;56729;52.036;5.332;2022-09-16T00:30:26;6.13;;;1.70;;
69532;SDS011;56729;52.036;5.332;2022-09-16T00:31:27;9.98;;;1.50;;
69532;SDS011;56729;52.036;5.332;2022-09-16T00:32:29;7.33;;;1.23;;
69532;SDS011;56729;52.036;5.332;2022-09-16T00:33:32;9.57;;;1.33;;
69532;SDS011;56729;52.036;5.332;2022-09-16T00:34:34;5.65;;;1.60;;
69532;SDS011;56729;52.036;5.332;2022-09-16T00:35:36;7.85;;;1.67;;
69532;SDS011;56729;52.036;5.332;2022-09-16T00:36:38;7.93;;;1.63;;
69532;SDS011;56729;52.036;5.332;2022-09-16T00:37:40;5.40;;;1.63;;
69532;SDS011;56729;52.036;5.332;2022-09-16T00:38:42;5.05;;;1.40;;
69532;SDS011;56729;52.036;5.332;2022-09-16T00:39:48;4.88;;;1.40;;
69532;SDS011;56729;52.036;5.332;2022-09-16T00:40:50;9.95;;;1.52;;
69532;SDS011;56729;52.036;5.332;2022-09-16T00:41:52;7.05;;;1.75;;
69532;SDS011;56729;52.036;5.332;2022-09-16T00:42:54;6.30;;;1.20;;
69532;SDS011;56729;52.036;5.332;2022-09-16T00:43:57;5.10;;;1.70;;
69532;SDS011;56729;52.036;5.332;2022-09-16T00:45:03;8.60;;;1.35;;
69532;SDS011;56729;52.036;5.332;2022-09-16T00:46:20;7.60;;;1.70;;
69532;SDS011;56729;52.036;5.332;2022-09-16T00:48:43;5.50;;;1.67;;
69532;SDS011;56729;52.036;5.332;2022-09-16T00:49:45;6.22;;;1.27;;
69532;SDS011;56729;52.036;5.332;2022-09-16T00:50:48;5.68;;;1.73;;
69532;SDS011;56729;52.036;5.332;2022-09-16T00:51:56;8.73;;;2.05;;
69532;SDS011;56729;52.036;5.332;2022-09-16T00:53:02;7.43;;;1.50;;
69532;SDS011;56729;52.036;5.332;2022-09-16T00:54:05;13.53;;;1.70;;
69532;SDS011;56729;52.036;5.332;2022-09-16T00:55:12;8.77;;;1.98;;
69532;SDS011;56729;52.036;5.332;2022-09-16T00:56:18;5.68;;;1.67;;
69532;SDS011;56729;52.036;5.332;2022-09-16T00:57:23;14.32;;;2.42;;
69532;SDS011;56729;52.036;5.332;2022-09-16T00:58:40;10.82;;;2.13;;
69532;SDS011;56729;52.036;5.332;2022-09-16T00:59:48;9.60;;;1.40;;
69532;SDS011;56729;52.036;5.332;2022-09-16T01:00:55;9.68;;;1.73;;
69532;SDS011;56729;52.036;5.332;2022-09-16T01:01:58;6.05;;;1.90;;
69532;SDS011;56729;52.036;5.332;2022-09-16T01:03:04;8.48;;;1.38;;
69532;SDS011;56729;52.036;5.332;2022-09-16T01:04:12;13.27;;;2.25;;
69532;SDS011;56729;52.036;5.332;2022-09-16T01:05:20;5.07;;;1.80;;
69532;SDS011;56729;52.036;5.332;2022-09-16T01:06:26;8.90;;;2.08;;
69532;SDS011;56729;52.036;5.332;2022-09-16T01:08:33;11.07;;;1.65;;
69532;SDS011;56729;52.036;5.332;2022-09-16T01:09:35;9.57;;;1.80;;
69532;SDS011;56729;52.036;5.332;2022-09-16T01:10:40;9.13;;;1.80;;
69532;SDS011;56729;52.036;5.332;2022-09-16T01:11:43;7.63;;;1.80;;
69532;SDS011;56729;52.036;5.332;2022-09-16T01:12:49;6.72;;;1.65;;
69532;SDS011;56729;52.036;5.332;2022-09-16T01:13:55;6.53;;;1.65;;
69532;SDS011;56729;52.036;5.332;2022-09-16T01:15:41;5.82;;;1.63;;
69532;SDS011;56729;52.036;5.332;2022-09-16T01:17:00;10.53;;;1.90;;
69532;SDS011;56729;52.036;5.332;2022-09-16T01:19:58;11.43;;;1.60;;
69532;SDS011;56729;52.036;5.332;2022-09-16T01:30:42;7.87;;;1.43;;
69532;SDS011;56729;52.036;5.332;2022-09-16T01:31:57;7.25;;;1.48;;
69532;SDS011;56729;52.036;5.332;2022-09-16T01:43:00;16.67;;;2.47;;
69532;SDS011;56729;52.036;5.332;2022-09-16T01:49:01;23.77;;;1.85;;
69532;SDS011;56729;52.036;5.332;2022-09-16T01:54:31;16.23;;;2.53;;
69532;SDS011;56729;52.036;5.332;2022-09-16T01:55:23;11.52;;;1.98;;
69532;SDS011;56729;52.036;5.332;2022-09-16T01:56:38;10.70;;;2.30;;
69532;SDS011;56729;52.036;5.332;2022-09-16T01:59:16;13.48;;;1.85;;
69532;SDS011;56729;52.036;5.332;2022-09-16T02:00:23;13.65;;;1.80;;
69532;SDS011;56729;52.036;5.332;2022-09-16T02:01:28;19.27;;;2.30;;
69532;SDS011;56729;52.036;5.332;2022-09-16T02:02:37;18.67;;;2.95;;
69532;SDS011;56729;52.036;5.332;2022-09-16T02:03:46;14.38;;;1.70;;
69532;SDS011;56729;52.036;5.332;2022-09-16T02:04:55;18.95;;;2.28;;
69532;SDS011;56729;52.036;5.332;2022-09-16T02:05:59;12.32;;;2.17;;
69532;SDS011;56729;52.036;5.332;2022-09-16T02:07:04;16.80;;;1.67;;
69532;SDS011;56729;52.036;5.332;2022-09-16T02:08:14;13.87;;;1.53;;
69532;SDS011;56729;52.036;5.332;2022-09-16T02:09:26;10.48;;;1.98;;
69532;SDS011;56729;52.036;5.332;2022-09-16T02:10:36;21.60;;;1.85;;
69532;SDS011;56729;52.036;5.332;2022-09-16T02:11:41;11.15;;;1.83;;
69532;SDS011;56729;52.036;5.332;2022-09-16T02:12:45;12.38;;;1.70;;
69532;SDS011;56729;52.036;5.332;2022-09-16T02:13:51;10.50;;;1.67;;
69532;SDS011;56729;52.036;5.332;2022-09-16T02:14:58;15.45;;;2.47;;
69532;SDS011;56729;52.036;5.332;2022-09-16T02:16:08;16.15;;;2.22;;
69532;SDS011;56729;52.036;5.332;2022-09-16T02:17:14;16.27;;;2.00;;
69532;SDS011;56729;52.036;5.332;2022-09-16T02:18:21;13.98;;;1.98;;
69532;SDS011;56729;52.036;5.332;2022-09-16T02:19:41;18.43;;;1.77;;
69532;SDS011;56729;52.036;5.332;2022-09-16T02:20:46;14.02;;;2.05;;
69532;SDS011;56729;52.036;5.332;2022-09-16T02:21:50;10.35;;;2.00;;
69532;SDS011;56729;52.036;5.332;2022-09-16T02:22:58;15.07;;;2.50;;
69532;SDS011;56729;52.036;5.332;2022-09-16T02:24:08;17.25;;;2.00;;
69532;SDS011;56729;52.036;5.332;2022-09-16T02:25:17;12.05;;;2.05;;
69532;SDS011;56729;52.036;5.332;2022-09-16T02:26:23;17.48;;;2.15;;
69532;SDS011;56729;52.036;5.332;2022-09-16T02:27:28;11.13;;;1.70;;
69532;SDS011;56729;52.036;5.332;2022-09-16T02:28:35;17.80;;;2.20;;
69532;SDS011;56729;52.036;5.332;2022-09-16T02:29:41;12.07;;;2.00;;
69532;SDS011;56729;52.036;5.332;2022-09-16T02:30:49;17.43;;;1.73;;
69532;SDS011;56729;52.036;5.332;2022-09-16T02:31:55;22.52;;;2.03;;
69532;SDS011;56729;52.036;5.332;2022-09-16T02:33:03;13.02;;;1.58;;
69532;SDS011;56729;52.036;5.332;2022-09-16T02:34:27;14.73;;;2.08;;
69532;SDS011;56729;52.036;5.332;2022-09-16T02:35:34;12.20;;;1.80;;
69532;SDS011;56729;52.036;5.332;2022-09-16T02:36:39;17.60;;;2.00;;
69532;SDS011;56729;52.036;5.332;2022-09-16T02:38:03;18.48;;;2.20;;
69532;SDS011;56729;52.036;5.332;2022-09-16T02:39:12;16.10;;;2.60;;
69532;SDS011;56729;52.036;5.332;2022-09-16T02:40:20;11.13;;;2.38;;
69532;SDS011;56729;52.036;5.332;2022-09-16T02:41:30;10.32;;;2.10;;
69532;SDS011;56729;52.036;5.332;2022-09-16T02:42:32;16.10;;;1.80;;
69532;SDS011;56729;52.036;5.332;2022-09-16T02:43:34;16.40;;;2.78;;
69532;SDS011;56729;52.036;5.332;2022-09-16T02:44:37;17.75;;;2.25;;
69532;SDS011;56729;52.036;5.332;2022-09-16T02:46:48;17.48;;;2.65;;
69532;SDS011;56729;52.036;5.332;2022-09-16T02:48:19;23.73;;;2.55;;
69532;SDS011;56729;52.036;5.332;2022-09-16T02:52:38;10.80;;;2.78;;
69532;SDS011;56729;52.036;5.332;2022-09-16T02:53:55;18.25;;;2.50;;
69532;SDS011;56729;52.036;5.332;2022-09-16T02:56:14;14.93;;;2.42;;
69532;SDS011;56729;52.036;5.332;2022-09-16T02:57:36;26.85;;;2.42;;
69532;SDS011;56729;52.036;5.332;2022-09-16T02:58:38;14.10;;;2.55;;
69532;SDS011;56729;52.036;5.332;2022-09-16T02:59:40;19.00;;;2.63;;
69532;SDS011;56729;52.036;5.332;2022-09-16T03:00:47;17.92;;;2.50;;
69532;SDS011;56729;52.036;5.332;2022-09-16T03:01:51;10.55;;;2.22;;
69532;SDS011;56729;52.036;5.332;2022-09-16T03:02:53;15.95;;;2.55;;
69532;SDS011;56729;52.036;5.332;2022-09-16T03:03:57;8.65;;;2.95;;
69532;SDS011;56729;52.036;5.332;2022-09-16T03:04:59;13.02;;;2.40;;
69532;SDS011;56729;52.036;5.332;2022-09-16T03:07:09;9.77;;;2.88;;
69532;SDS011;56729;52.036;5.332;2022-09-16T03:08:12;14.90;;;2.50;;
69532;SDS011;56729;52.036;5.332;2022-09-16T03:09:14;18.38;;;2.90;;
69532;SDS011;56729;52.036;5.332;2022-09-16T03:10:18;14.98;;;3.08;;
69532;SDS011;56729;52.036;5.332;2022-09-16T03:12:52;12.70;;;2.65;;
69532;SDS011;56729;52.036;5.332;2022-09-16T03:15:54;26.85;;;3.17;;
69532;SDS011;56729;52.036;5.332;2022-09-16T03:19:56;12.80;;;2.83;;
69532;SDS011;56729;52.036;5.332;2022-09-16T03:23:00;12.02;;;2.45;;
69532;SDS011;56729;52.036;5.332;2022-09-16T03:24:11;10.18;;;3.15;;
69532;SDS011;56729;52.036;5.332;2022-09-16T03:26:52;16.40;;;2.70;;
69532;SDS011;56729;52.036;5.332;2022-09-16T03:29:22;12.48;;;3.03;;
69532;SDS011;56729;52.036;5.332;2022-09-16T03:30:29;11.18;;;2.72;;
69532;SDS011;56729;52.036;5.332;2022-09-16T03:31:46;15.63;;;2.90;;
69532;SDS011;56729;52.036;5.332;2022-09-16T03:34:09;12.50;;;2.85;;
69532;SDS011;56729;52.036;5.332;2022-09-16T03:36:44;17.77;;;2.85;;
69532;SDS011;56729;52.036;5.332;2022-09-16T03:37:53;10.52;;;2.72;;
69532;SDS011;56729;52.036;5.332;2022-09-16T03:38:57;11.75;;;2.50;;
69532;SDS011;56729;52.036;5.332;2022-09-16T03:40:03;10.23;;;2.50;;
69532;SDS011;56729;52.036;5.332;2022-09-16T03:41:09;15.55;;;2.75;;
69532;SDS011;56729;52.036;5.332;2022-09-16T03:42:12;19.75;;;2.92;;
69532;SDS011;56729;52.036;5.332;2022-09-16T03:43:15;12.03;;;3.03;;
69532;SDS011;56729;52.036;5.332;2022-09-16T03:44:17;10.75;;;2.78;;
69532;SDS011;56729;52.036;5.332;2022-09-16T03:45:20;17.55;;;2.88;;
69532;SDS011;56729;52.036;5.332;2022-09-16T03:46:22;19.65;;;3.33;;
69532;SDS011;56729;52.036;5.332;2022-09-16T03:47:29;15.85;;;2.63;;
69532;SDS011;56729;52.036;5.332;2022-09-16T03:48:31;14.05;;;2.72;;
69532;SDS011;56729;52.036;5.332;2022-09-16T03:49:33;21.63;;;3.30;;
69532;SDS011;56729;52.036;5.332;2022-09-16T03:50:36;11.55;;;2.92;;
69532;SDS011;56729;52.036;5.332;2022-09-16T03:51:38;10.95;;;2.72;;
69532;SDS011;56729;52.036;5.332;2022-09-16T03:52:39;16.55;;;2.90;;
69532;SDS011;56729;52.036;5.332;2022-09-16T03:53:42;10.50;;;2.97;;
69532;SDS011;56729;52.036;5.332;2022-09-16T03:54:44;21.35;;;3.25;;
69532;SDS011;56729;52.036;5.332;2022-09-16T03:55:47;17.88;;;2.90;;
69532;SDS011;56729;52.036;5.332;2022-09-16T03:56:50;14.50;;;3.20;;
69532;SDS011;56729;52.036;5.332;2022-09-16T03:57:52;13.95;;;2.92;;
69532;SDS011;56729;52.036;5.332;2022-09-16T03:58:55;20.77;;;3.88;;
69532;SDS011;56729;52.036;5.332;2022-09-16T03:59:57;16.42;;;3.58;;
69532;SDS011;56729;52.036;5.332;2022-09-16T04:00:59;13.38;;;2.90;;
69532;SDS011;56729;52.036;5.332;2022-09-16T04:02:01;15.43;;;2.95;;
69532;SDS011;56729;52.036;5.332;2022-09-16T04:03:03;12.32;;;3.15;;
69532;SDS011;56729;52.036;5.332;2022-09-16T04:04:05;15.17;;;2.40;;
69532;SDS011;56729;52.036;5.332;2022-09-16T04:05:07;25.13;;;3.35;;
69532;SDS011;56729;52.036;5.332;2022-09-16T04:06:09;18.65;;;3.13;;
69532;SDS011;56729;52.036;5.332;2022-09-16T04:07:11;13.98;;;2.95;;
69532;SDS011;56729;52.036;5.332;2022-09-16T04:08:13;14.77;;;2.50;;
69532;SDS011;56729;52.036;5.332;2022-09-16T04:09:15;10.40;;;1.73;;
69532;SDS011;56729;52.036;5.332;2022-09-16T04:10:17;9.82;;;2.00;;
69532;SDS011;56729;52.036;5.332;2022-09-16T04:11:19;24.05;;;2.22;;
69532;SDS011;56729;52.036;5.332;2022-09-16T04:12:21;19.38;;;2.42;;
69532;SDS011;56729;52.036;5.332;2022-09-16T04:13:23;14.38;;;1.83;;
69532;SDS011;56729;52.036;5.332;2022-09-16T04:14:25;30.37;;;2.77;;
69532;SDS011;56729;52.036;5.332;2022-09-16T04:15:27;20.75;;;2.65;;
69532;SDS011;56729;52.036;5.332;2022-09-16T04:16:29;20.98;;;1.92;;
69532;SDS011;56729;52.036;5.332;2022-09-16T04:17:31;15.02;;;2.30;;
69532;SDS011;56729;52.036;5.332;2022-09-16T04:18:34;16.48;;;2.42;;
69532;SDS011;56729;52.036;5.332;2022-09-16T04:19:36;18.63;;;2.10;;
69532;SDS011;56729;52.036;5.332;2022-09-16T04:20:38;13.23;;;2.30;;
69532;SDS011;56729;52.036;5.332;2022-09-16T04:21:40;15.95;;;2.13;;
69532;SDS011;56729;52.036;5.332;2022-09-16T04:22:42;16.90;;;2.20;;
69532;SDS011;56729;52.036;5.332;2022-09-16T04:23:44;14.52;;;1.90;;
69532;SDS011;56729;52.036;5.332;2022-09-16T04:24:46;12.60;;;2.13;;
69532;SDS011;56729;52.036;5.332;2022-09-16T04:25:54;11.60;;;2.00;;
69532;SDS011;56729;52.036;5.332;2022-09-16T04:27:00;9.13;;;1.95;;
69532;SDS011;56729;52.036;5.332;2022-09-16T04:28:02;20.60;;;2.47;;
69532;SDS011;56729;52.036;5.332;2022-09-16T04:29:04;21.50;;;2.95;;
69532;SDS011;56729;52.036;5.332;2022-09-16T04:30:06;10.27;;;1.70;;
69532;SDS011;56729;52.036;5.332;2022-09-16T04:31:10;12.98;;;2.10;;
69532;SDS011;56729;52.036;5.332;2022-09-16T04:32:13;20.98;;;2.28;;
69532;SDS011;56729;52.036;5.332;2022-09-16T04:33:15;23.60;;;2.40;;
69532;SDS011;56729;52.036;5.332;2022-09-16T04:34:17;7.88;;;1.70;;
69532;SDS011;56729;52.036;5.332;2022-09-16T04:35:19;22.07;;;2.53;;
69532;SDS011;56729;52.036;5.332;2022-09-16T04:36:21;12.23;;;2.10;;
69532;SDS011;56729;52.036;5.332;2022-09-16T04:37:23;10.82;;;1.95;;
69532;SDS011;56729;52.036;5.332;2022-09-16T04:38:25;15.05;;;2.53;;
69532;SDS011;56729;52.036;5.332;2022-09-16T04:39:26;13.35;;;2.30;;
69532;SDS011;56729;52.036;5.332;2022-09-16T04:40:28;8.27;;;1.90;;
69532;SDS011;56729;52.036;5.332;2022-09-16T04:41:30;9.48;;;1.75;;
69532;SDS011;56729;52.036;5.332;2022-09-16T04:42:32;18.70;;;2.45;;
69532;SDS011;56729;52.036;5.332;2022-09-16T04:43:34;11.30;;;2.03;;
69532;SDS011;56729;52.036;5.332;2022-09-16T04:44:37;10.77;;;1.98;;
69532;SDS011;56729;52.036;5.332;2022-09-16T04:45:39;13.00;;;1.80;;
69532;SDS011;56729;52.036;5.332;2022-09-16T04:46:41;9.13;;;2.05;;
69532;SDS011;56729;52.036;5.332;2022-09-16T04:47:43;11.18;;;1.98;;
69532;SDS011;56729;52.036;5.332;2022-09-16T04:48:46;10.45;;;2.33;;
69532;SDS011;56729;52.036;5.332;2022-09-16T04:49:48;7.22;;;2.33;;
69532;SDS011;56729;52.036;5.332;2022-09-16T04:50:51;10.95;;;2.25;;
69532;SDS011;56729;52.036;5.332;2022-09-16T04:51:54;17.02;;;2.05;;
69532;SDS011;56729;52.036;5.332;2022-09-16T04:52:56;9.13;;;2.00;;
69532;SDS011;56729;52.036;5.332;2022-09-16T04:53:58;19.73;;;2.40;;
69532;SDS011;56729;52.036;5.332;2022-09-16T04:55:01;10.95;;;2.40;;
69532;SDS011;56729;52.036;5.332;2022-09-16T04:56:04;9.50;;;1.90;;
69532;SDS011;56729;52.036;5.332;2022-09-16T04:57:23;9.43;;;2.10;;
69532;SDS011;56729;52.036;5.332;2022-09-16T04:58:25;13.40;;;2.40;;
69532;SDS011;56729;52.036;5.332;2022-09-16T04:59:29;11.00;;;1.90;;
69532;SDS011;56729;52.036;5.332;2022-09-16T05:00:31;14.35;;;2.40;;
69532;SDS011;56729;52.036;5.332;2022-09-16T05:01:35;17.00;;;2.42;;
69532;SDS011;56729;52.036;5.332;2022-09-16T05:02:38;19.48;;;2.10;;
69532;SDS011;56729;52.036;5.332;2022-09-16T05:03:41;13.35;;;2.28;;
69532;SDS011;56729;52.036;5.332;2022-09-16T05:04:44;9.45;;;2.30;;
69532;SDS011;56729;52.036;5.332;2022-09-16T05:05:46;11.95;;;2.00;;
69532;SDS011;56729;52.036;5.332;2022-09-16T05:06:48;13.97;;;2.20;;
69532;SDS011;56729;52.036;5.332;2022-09-16T05:07:49;14.95;;;2.08;;
69532;SDS011;56729;52.036;5.332;2022-09-16T05:08:53;10.27;;;2.13;;
69532;SDS011;56729;52.036;5.332;2022-09-16T05:09:56;9.55;;;2.25;;
69532;SDS011;56729;52.036;5.332;2022-09-16T05:11:01;10.85;;;2.08;;
69532;SDS011;56729;52.036;5.332;2022-09-16T05:12:04;12.38;;;2.03;;
69532;SDS011;56729;52.036;5.332;2022-09-16T05:13:07;17.40;;;2.60;;
69532;SDS011;56729;52.036;5.332;2022-09-16T05:14:12;11.13;;;2.40;;
69532;SDS011;56729;52.036;5.332;2022-09-16T05:15:16;17.92;;;2.72;;
69532;SDS011;56729;52.036;5.332;2022-09-16T05:16:18;13.73;;;2.10;;
69532;SDS011;56729;52.036;5.332;2022-09-16T05:17:21;12.77;;;2.30;;
69532;SDS011;56729;52.036;5.332;2022-09-16T05:18:44;12.70;;;2.28;;
69532;SDS011;56729;52.036;5.332;2022-09-16T05:19:47;20.13;;;2.17;;
69532;SDS011;56729;52.036;5.332;2022-09-16T05:20:54;27.30;;;2.83;;
69532;SDS011;56729;52.036;5.332;2022-09-16T05:22:00;14.88;;;2.78;;
69532;SDS011;56729;52.036;5.332;2022-09-16T05:23:07;10.65;;;2.75;;
69532;SDS011;56729;52.036;5.332;2022-09-16T05:24:11;9.20;;;2.70;;
69532;SDS011;56729;52.036;5.332;2022-09-16T05:25:13;13.93;;;2.60;;
69532;SDS011;56729;52.036;5.332;2022-09-16T05:26:17;7.18;;;2.10;;
69532;SDS011;56729;52.036;5.332;2022-09-16T05:27:20;11.23;;;2.47;;
69532;SDS011;56729;52.036;5.332;2022-09-16T05:28:22;7.53;;;1.90;;
69532;SDS011;56729;52.036;5.332;2022-09-16T05:29:24;17.23;;;2.35;;
69532;SDS011;56729;52.036;5.332;2022-09-16T05:30:26;17.75;;;2.40;;
69532;SDS011;56729;52.036;5.332;2022-09-16T05:31:29;19.90;;;2.72;;
69532;SDS011;56729;52.036;5.332;2022-09-16T05:32:32;21.05;;;3.10;;
69532;SDS011;56729;52.036;5.332;2022-09-16T05:33:34;24.98;;;3.00;;
69532;SDS011;56729;52.036;5.332;2022-09-16T05:34:36;25.77;;;2.35;;
69532;SDS011;56729;52.036;5.332;2022-09-16T05:35:38;15.73;;;2.28;;
69532;SDS011;56729;52.036;5.332;2022-09-16T05:36:42;15.38;;;2.28;;
69532;SDS011;56729;52.036;5.332;2022-09-16T05:37:45;14.60;;;2.58;;
69532;SDS011;56729;52.036;5.332;2022-09-16T05:38:47;19.43;;;2.70;;
69532;SDS011;56729;52.036;5.332;2022-09-16T05:40:09;15.20;;;2.75;;
69532;SDS011;56729;52.036;5.332;2022-09-16T05:41:11;9.23;;;1.92;;
69532;SDS011;56729;52.036;5.332;2022-09-16T05:42:12;17.25;;;2.50;;
69532;SDS011;56729;52.036;5.332;2022-09-16T05:43:14;12.10;;;2.38;;
69532;SDS011;56729;52.036;5.332;2022-09-16T05:44:16;14.07;;;2.40;;
69532;SDS011;56729;52.036;5.332;2022-09-16T05:45:18;17.80;;;2.70;;
69532;SDS011;56729;52.036;5.332;2022-09-16T05:46:27;7.32;;;2.55;;
69532;SDS011;56729;52.036;5.332;2022-09-16T05:47:29;10.90;;;2.75;;
69532;SDS011;56729;52.036;5.332;2022-09-16T05:48:32;16.98;;;3.03;;
69532;SDS011;56729;52.036;5.332;2022-09-16T05:49:35;7.73;;;2.13;;
69532;SDS011;56729;52.036;5.332;2022-09-16T05:50:37;13.98;;;2.55;;
69532;SDS011;56729;52.036;5.332;2022-09-16T05:51:39;16.52;;;3.90;;
69532;SDS011;56729;52.036;5.332;2022-09-16T05:52:42;15.73;;;2.63;;
69532;SDS011;56729;52.036;5.332;2022-09-16T05:53:44;14.00;;;3.40;;
69532;SDS011;56729;52.036;5.332;2022-09-16T05:54:47;26.25;;;3.90;;
69532;SDS011;56729;52.036;5.332;2022-09-16T05:56:08;14.98;;;2.97;;
69532;SDS011;56729;52.036;5.332;2022-09-16T05:57:12;12.20;;;2.40;;
69532;SDS011;56729;52.036;5.332;2022-09-16T05:58:14;19.33;;;3.10;;
69532;SDS011;56729;52.036;5.332;2022-09-16T05:59:16;20.20;;;2.65;;
69532;SDS011;56729;52.036;5.332;2022-09-16T06:00:18;12.07;;;2.80;;
69532;SDS011;56729;52.036;5.332;2022-09-16T06:01:25;27.08;;;3.17;;
69532;SDS011;56729;52.036;5.332;2022-09-16T06:02:28;13.88;;;2.80;;
69532;SDS011;56729;52.036;5.332;2022-09-16T06:03:31;22.27;;;3.20;;
69532;SDS011;56729;52.036;5.332;2022-09-16T06:04:34;14.45;;;2.80;;
69532;SDS011;56729;52.036;5.332;2022-09-16T06:05:36;16.15;;;2.45;;
69532;SDS011;56729;52.036;5.332;2022-09-16T06:06:45;27.58;;;2.80;;
69532;SDS011;56729;52.036;5.332;2022-09-16T06:07:47;9.77;;;2.58;;
69532;SDS011;56729;52.036;5.332;2022-09-16T06:08:49;17.70;;;2.72;;
69532;SDS011;56729;52.036;5.332;2022-09-16T06:09:52;15.65;;;2.67;;
69532;SDS011;56729;52.036;5.332;2022-09-16T06:10:55;22.80;;;2.60;;
69532;SDS011;56729;52.036;5.332;2022-09-16T06:11:57;22.33;;;3.05;;
69532;SDS011;56729;52.036;5.332;2022-09-16T06:13:02;17.48;;;3.05;;
69532;SDS011;56729;52.036;5.332;2022-09-16T06:14:04;22.92;;;2.80;;
69532;SDS011;56729;52.036;5.332;2022-09-16T06:15:07;26.45;;;3.22;;
69532;SDS011;56729;52.036;5.332;2022-09-16T06:16:10;32.08;;;3.00;;
69532;SDS011;56729;52.036;5.332;2022-09-16T06:17:14;20.67;;;2.85;;
69532;SDS011;56729;52.036;5.332;2022-09-16T06:18:16;19.27;;;3.13;;
69532;SDS011;56729;52.036;5.332;2022-09-16T06:19:19;15.38;;;3.17;;
69532;SDS011;56729;52.036;5.332;2022-09-16T06:20:21;14.23;;;3.50;;
69532;SDS011;56729;52.036;5.332;2022-09-16T06:21:23;10.63;;;2.50;;
69532;SDS011;56729;52.036;5.332;2022-09-16T06:22:25;21.33;;;2.70;;
69532;SDS011;56729;52.036;5.332;2022-09-16T06:23:30;15.48;;;2.33;;
69532;SDS011;56729;52.036;5.332;2022-09-16T06:24:33;18.20;;;3.08;;
69532;SDS011;56729;52.036;5.332;2022-09-16T06:25:35;10.63;;;2.10;;
69532;SDS011;56729;52.036;5.332;2022-09-16T06:26:38;16.33;;;2.95;;
69532;SDS011;56729;52.036;5.332;2022-09-16T06:27:41;16.58;;;2.85;;
69532;SDS011;56729;52.036;5.332;2022-09-16T06:28:43;15.90;;;2.58;;
69532;SDS011;56729;52.036;5.332;2022-09-16T06:29:45;10.50;;;2.05;;
69532;SDS011;56729;52.036;5.332;2022-09-16T06:30:47;19.13;;;2.50;;
69532;SDS011;56729;52.036;5.332;2022-09-16T06:31:49;13.63;;;2.13;;
69532;SDS011;56729;52.036;5.332;2022-09-16T06:32:51;22.70;;;2.53;;
69532;SDS011;56729;52.036;5.332;2022-09-16T06:33:53;12.75;;;2.15;;
69532;SDS011;56729;52.036;5.332;2022-09-16T06:34:56;25.52;;;2.67;;
69532;SDS011;56729;52.036;5.332;2022-09-16T06:36:02;15.27;;;2.28;;
69532;SDS011;56729;52.036;5.332;2022-09-16T06:37:12;12.35;;;2.28;;
69532;SDS011;56729;52.036;5.332;2022-09-16T06:38:15;11.98;;;2.00;;
69532;SDS011;56729;52.036;5.332;2022-09-16T06:39:16;15.45;;;2.40;;
69532;SDS011;56729;52.036;5.332;2022-09-16T06:40:18;14.63;;;2.20;;
69532;SDS011;56729;52.036;5.332;2022-09-16T06:41:21;10.57;;;2.90;;
69532;SDS011;56729;52.036;5.332;2022-09-16T06:42:23;12.07;;;2.50;;
69532;SDS011;56729;52.036;5.332;2022-09-16T06:43:26;19.38;;;3.30;;
69532;SDS011;56729;52.036;5.332;2022-09-16T06:44:28;13.90;;;2.55;;
69532;SDS011;56729;52.036;5.332;2022-09-16T06:45:30;19.42;;;2.60;;
69532;SDS011;56729;52.036;5.332;2022-09-16T06:46:32;11.73;;;2.63;;
69532;SDS011;56729;52.036;5.332;2022-09-16T06:47:34;10.48;;;2.72;;
69532;SDS011;56729;52.036;5.332;2022-09-16T06:48:36;12.35;;;2.80;;
69532;SDS011;56729;52.036;5.332;2022-09-16T06:49:37;11.57;;;2.42;;
69532;SDS011;56729;52.036;5.332;2022-09-16T06:50:40;23.45;;;3.10;;
69532;SDS011;56729;52.036;5.332;2022-09-16T06:51:41;15.23;;;2.92;;
69532;SDS011;56729;52.036;5.332;2022-09-16T06:52:43;16.03;;;2.40;;
69532;SDS011;56729;52.036;5.332;2022-09-16T06:53:50;10.88;;;2.90;;
69532;SDS011;56729;52.036;5.332;2022-09-16T06:54:53;9.35;;;2.72;;
69532;SDS011;56729;52.036;5.332;2022-09-16T06:55:58;15.02;;;2.55;;
69532;SDS011;56729;52.036;5.332;2022-09-16T06:57:05;11.02;;;2.53;;
69532;SDS011;56729;52.036;5.332;2022-09-16T06:58:12;13.57;;;3.22;;
69532;SDS011;56729;52.036;5.332;2022-09-16T06:59:14;15.20;;;2.45;;
69532;SDS011;56729;52.036;5.332;2022-09-16T07:00:16;11.48;;;2.28;;
69532;SDS011;56729;52.036;5.332;2022-09-16T07:01:19;9.10;;;2.28;;
69532;SDS011;56729;52.036;5.332;2022-09-16T07:02:23;11.48;;;2.60;;
69532;SDS011;56729;52.036;5.332;2022-09-16T07:03:25;8.60;;;2.10;;
69532;SDS011;56729;52.036;5.332;2022-09-16T07:04:27;12.63;;;2.60;;
69532;SDS011;56729;52.036;5.332;2022-09-16T07:05:29;8.13;;;2.15;;
69532;SDS011;56729;52.036;5.332;2022-09-16T07:06:31;17.52;;;2.78;;
69532;SDS011;56729;52.036;5.332;2022-09-16T07:07:56;9.82;;;2.20;;
69532;SDS011;56729;52.036;5.332;2022-09-16T07:08:58;10.70;;;2.53;;
69532;SDS011;56729;52.036;5.332;2022-09-16T07:10:00;13.23;;;2.58;;
69532;SDS011;56729;52.036;5.332;2022-09-16T07:11:03;23.42;;;2.88;;
69532;SDS011;56729;52.036;5.332;2022-09-16T07:12:15;19.08;;;2.50;;
69532;SDS011;56729;52.036;5.332;2022-09-16T07:13:20;9.52;;;2.13;;
69532;SDS011;56729;52.036;5.332;2022-09-16T07:14:21;11.03;;;2.20;;
69532;SDS011;56729;52.036;5.332;2022-09-16T07:15:23;11.63;;;2.38;;
69532;SDS011;56729;52.036;5.332;2022-09-16T07:16:25;11.88;;;2.13;;
69532;SDS011;56729;52.036;5.332;2022-09-16T07:17:27;11.80;;;2.00;;
69532;SDS011;56729;52.036;5.332;2022-09-16T07:18:30;14.60;;;2.22;;
69532;SDS011;56729;52.036;5.332;2022-09-16T07:19:32;16.70;;;2.22;;